createdAt,value
2022-12-29T00:01:22.471Z,9.70
2022-12-29T00:06:25.049Z,9.60
2022-12-29T00:11:28.567Z,9.60
2022-12-29T00:16:34.356Z,9.70
2022-12-29T00:21:54.722Z,9.70
2022-12-29T00:27:28.659Z,9.60
2022-12-29T00:32:49.353Z,9.70
2022-12-29T00:38:10.438Z,9.60
2022-12-29T00:43:30.996Z,9.60
2022-12-29T00:48:51.556Z,9.60
2022-12-29T00:53:53.667Z,9.50
2022-12-29T00:58:55.853Z,9.60
2022-12-29T01:04:02.235Z,9.60
2022-12-29T01:09:25.966Z,9.60
2022-12-29T01:14:28.769Z,9.60
2022-12-29T01:19:30.923Z,9.60
2022-12-29T01:24:33.059Z,9.70
2022-12-29T01:29:35.180Z,9.70
2022-12-29T01:34:37.365Z,9.70
2022-12-29T01:39:39.596Z,9.70
2022-12-29T01:44:58.152Z,9.60
2022-12-29T01:50:06.823Z,9.60
2022-12-29T01:55:12.112Z,9.60
2022-12-29T02:00:15.371Z,9.60
2022-12-29T02:05:28.348Z,9.60
2022-12-29T02:10:33.975Z,9.50
2022-12-29T02:16:06.990Z,9.50
2022-12-29T02:21:27.833Z,9.40
2022-12-29T02:26:45.377Z,9.30
2022-12-29T02:32:00.755Z,9.10
2022-12-29T02:37:25.556Z,9.10
2022-12-29T02:42:50.784Z,9.00
2022-12-29T02:48:05.056Z,9.00
2022-12-29T02:53:11.778Z,9.00
2022-12-29T02:58:24.016Z,9.00
2022-12-29T03:03:47.682Z,9.00
2022-12-29T03:09:18.281Z,9.00
2022-12-29T03:15:10.756Z,9.10
2022-12-29T03:20:24.685Z,9.10
2022-12-29T03:25:33.757Z,9.10
2022-12-29T03:30:40.974Z,9.00
2022-12-29T03:35:44.987Z,8.90
2022-12-29T03:40:53.830Z,8.90
2022-12-29T03:45:56.134Z,8.90
2022-12-29T03:50:58.247Z,8.90
2022-12-29T03:56:00.431Z,8.80
2022-12-29T04:01:02.935Z,8.80
2022-12-29T04:06:08.726Z,8.80
2022-12-29T04:11:20.699Z,8.80
2022-12-29T04:16:22.940Z,8.70
2022-12-29T04:21:26.164Z,8.70
2022-12-29T04:26:28.386Z,8.70
2022-12-29T04:31:41.137Z,8.70
2022-12-29T04:36:43.505Z,8.80
2022-12-29T04:41:45.670Z,8.70
2022-12-29T04:46:52.826Z,8.70
2022-12-29T04:52:27.056Z,8.60
2022-12-29T04:57:30.846Z,8.70
2022-12-29T05:02:35.616Z,8.60
2022-12-29T05:07:38.059Z,8.70
2022-12-29T05:12:40.497Z,8.70
2022-12-29T05:17:43.170Z,8.80
2022-12-29T05:22:45.799Z,8.80
2022-12-29T05:27:47.939Z,8.60
2022-12-29T05:33:16.186Z,8.50
2022-12-29T05:38:18.793Z,8.40
2022-12-29T05:43:21.505Z,8.30
2022-12-29T05:48:44.005Z,8.30
2022-12-29T05:54:10.423Z,8.30
2022-12-29T05:59:13.597Z,8.20
2022-12-29T06:04:16.204Z,8.20
2022-12-29T06:09:18.366Z,8.20
2022-12-29T06:14:21.288Z,8.20
2022-12-29T06:19:23.679Z,8.20
2022-12-29T06:24:26.381Z,8.10
2022-12-29T06:29:29.022Z,8.10
2022-12-29T06:34:33.350Z,8.10
2022-12-29T06:39:35.777Z,8.00
2022-12-29T06:44:41.977Z,8.00
2022-12-29T06:49:45.750Z,8.00
2022-12-29T06:54:47.903Z,7.90
2022-12-29T06:59:50.089Z,7.90
2022-12-29T07:04:53.462Z,7.90
2022-12-29T07:09:55.892Z,7.90
2022-12-29T07:14:57.975Z,7.90
2022-12-29T07:20:00.170Z,8.00
2022-12-29T07:25:02.360Z,8.10
2022-12-29T07:30:04.812Z,8.20
2022-12-29T07:35:07.402Z,8.20
2022-12-29T07:40:11.206Z,8.20
2022-12-29T07:45:13.275Z,8.30
2022-12-29T07:50:29.593Z,8.30
2022-12-29T07:55:31.799Z,8.30
2022-12-29T08:00:34.327Z,8.30
2022-12-29T08:05:36.505Z,8.30
2022-12-29T08:10:38.615Z,8.30
2022-12-29T08:15:40.803Z,8.30
2022-12-29T08:20:42.912Z,8.20
2022-12-29T08:25:45.034Z,8.10
2022-12-29T08:30:47.198Z,8.00
2022-12-29T08:35:49.456Z,7.90
2022-12-29T08:40:52.774Z,7.80
2022-12-29T08:45:55.264Z,7.80
2022-12-29T08:50:57.464Z,7.80
2022-12-29T08:56:05.173Z,7.90
2022-12-29T09:01:17.263Z,7.90
2022-12-29T09:06:19.544Z,7.90
2022-12-29T09:11:24.395Z,7.90
2022-12-29T09:16:28.035Z,7.80
2022-12-29T09:21:30.366Z,7.80
2022-12-29T09:26:32.487Z,7.80
2022-12-29T09:31:34.663Z,7.80
2022-12-29T09:36:36.860Z,7.90
2022-12-29T09:42:06.820Z,8.00
2022-12-29T09:47:14.146Z,8.20
2022-12-29T09:52:45.147Z,8.30
2022-12-29T09:57:54.328Z,8.60
2022-12-29T10:03:04.000Z,8.70
2022-12-29T10:08:27.840Z,8.70
2022-12-29T10:13:35.019Z,8.80
2022-12-29T10:19:19.297Z,8.60
2022-12-29T10:24:23.035Z,8.40
2022-12-29T10:29:38.001Z,8.40
2022-12-29T10:34:46.780Z,8.40
2022-12-29T10:39:56.865Z,8.40
2022-12-29T10:45:00.915Z,8.70
2022-12-29T10:50:04.135Z,8.80
2022-12-29T10:55:14.123Z,8.90
2022-12-29T11:00:21.858Z,8.90
2022-12-29T11:05:59.143Z,8.80
2022-12-29T11:11:07.706Z,8.80
2022-12-29T11:16:13.376Z,8.80
2022-12-29T11:21:41.099Z,8.80
2022-12-29T11:26:45.614Z,8.90
2022-12-29T11:31:50.544Z,9.00
2022-12-29T11:36:59.274Z,9.40
2022-12-29T11:42:03.850Z,9.60
2022-12-29T11:47:10.068Z,9.80
2022-12-29T11:52:14.212Z,9.90
2022-12-29T11:57:18.385Z,10.40
2022-12-29T12:02:43.896Z,10.40
2022-12-29T12:07:50.806Z,10.10
2022-12-29T12:13:23.533Z,10.00
2022-12-29T12:18:35.064Z,9.90
2022-12-29T12:23:46.138Z,9.90
2022-12-29T12:29:00.765Z,9.90
2022-12-29T12:34:10.041Z,10.20
2022-12-29T12:39:18.270Z,10.20
2022-12-29T12:44:27.787Z,10.30
2022-12-29T12:49:51.288Z,10.20
2022-12-29T12:55:24.438Z,10.00
2022-12-29T13:00:28.937Z,9.80
2022-12-29T13:05:52.370Z,9.60
2022-12-29T13:11:31.974Z,9.40
2022-12-29T13:16:48.466Z,9.20
2022-12-29T13:22:05.972Z,9.10
2022-12-29T13:27:37.376Z,8.90
2022-12-29T13:33:24.048Z,8.80
2022-12-29T13:38:42.211Z,8.80
2022-12-29T13:43:47.840Z,8.80
2022-12-29T13:49:01.345Z,9.00
2022-12-29T13:54:15.788Z,9.50
2022-12-29T13:59:36.741Z,9.80
2022-12-29T14:05:03.200Z,9.90
2022-12-29T14:10:06.480Z,10.00
2022-12-29T14:15:11.401Z,9.90
2022-12-29T14:20:24.331Z,10.10
2022-12-29T14:25:57.130Z,10.10
2022-12-29T14:31:26.380Z,9.80
2022-12-29T14:36:35.647Z,9.70
2022-12-29T14:41:40.320Z,9.90
2022-12-29T14:46:54.209Z,10.00
2022-12-29T14:52:15.584Z,10.00
2022-12-29T14:57:26.901Z,10.00
2022-12-29T15:02:38.213Z,9.90
2022-12-29T15:07:41.185Z,9.90
2022-12-29T15:12:50.009Z,9.90
2022-12-29T15:17:52.671Z,9.80
2022-12-29T15:23:01.853Z,9.70
2022-12-29T15:28:07.360Z,9.50
2022-12-29T15:33:20.200Z,9.30
2022-12-29T15:38:32.180Z,9.20
2022-12-29T15:44:09.377Z,9.30
2022-12-29T15:49:15.183Z,9.40
2022-12-29T15:54:23.365Z,9.50
2022-12-29T15:59:35.314Z,9.50
2022-12-29T16:04:54.386Z,9.30
2022-12-29T16:10:02.215Z,9.20
2022-12-29T16:15:09.216Z,9.00
2022-12-29T16:20:41.832Z,8.90
2022-12-29T16:25:44.054Z,8.70
2022-12-29T16:30:46.289Z,8.60
2022-12-29T16:35:48.726Z,8.50
2022-12-29T16:40:54.821Z,8.40
2022-12-29T16:45:59.848Z,8.30
2022-12-29T16:51:05.598Z,8.30
2022-12-29T16:56:18.010Z,8.20
2022-12-29T17:01:21.733Z,8.20
2022-12-29T17:06:24.927Z,8.10
2022-12-29T17:11:58.391Z,8.10
2022-12-29T17:17:04.498Z,8.00
2022-12-29T17:22:27.117Z,8.00
2022-12-29T17:27:41.492Z,7.90
2022-12-29T17:32:46.750Z,7.90
2022-12-29T17:37:50.205Z,7.80
2022-12-29T17:42:57.731Z,7.80
2022-12-29T17:48:02.871Z,7.70
2022-12-29T17:53:11.397Z,7.60
2022-12-29T17:58:22.373Z,7.50
2022-12-29T18:03:38.971Z,7.50
2022-12-29T18:08:42.539Z,7.40
2022-12-29T18:13:46.889Z,7.40
2022-12-29T18:18:49.351Z,7.40
2022-12-29T18:23:51.855Z,7.40
2022-12-29T18:28:54.712Z,7.40
2022-12-29T18:33:58.789Z,7.30
2022-12-29T18:39:00.863Z,7.30
2022-12-29T18:44:03.010Z,7.20
2022-12-29T18:49:05.195Z,7.20
2022-12-29T18:54:13.469Z,7.10
2022-12-29T18:59:15.699Z,7.10
2022-12-29T19:04:18.202Z,7.10
2022-12-29T19:09:20.285Z,7.00
2022-12-29T19:14:22.372Z,7.00
2022-12-29T19:19:24.561Z,6.90
2022-12-29T19:24:26.699Z,6.90
2022-12-29T19:29:28.942Z,6.80
2022-12-29T19:34:31.098Z,6.80
2022-12-29T19:39:33.294Z,6.80
2022-12-29T19:44:35.465Z,6.80
2022-12-29T19:49:37.902Z,6.80
2022-12-29T19:54:40.053Z,6.80
2022-12-29T19:59:42.179Z,6.80
2022-12-29T20:04:44.870Z,6.70
2022-12-29T20:09:46.997Z,6.70
2022-12-29T20:14:49.238Z,6.70
2022-12-29T20:19:51.463Z,6.60
2022-12-29T20:25:05.127Z,6.70
2022-12-29T20:30:15.749Z,6.60
2022-12-29T20:35:17.904Z,6.60
2022-12-29T20:40:20.026Z,6.70
2022-12-29T20:45:22.117Z,6.70
2022-12-29T20:50:24.214Z,6.70
2022-12-29T20:55:26.493Z,6.70
2022-12-29T21:00:30.758Z,6.70
2022-12-29T21:05:36.172Z,6.70
2022-12-29T21:10:38.454Z,6.70
2022-12-29T21:15:40.664Z,6.70
2022-12-29T21:20:42.837Z,6.70
2022-12-29T21:25:45.069Z,6.60
2022-12-29T21:30:49.141Z,6.50
2022-12-29T21:35:51.479Z,6.50
2022-12-29T21:40:53.635Z,6.40
2022-12-29T21:45:55.964Z,6.40
2022-12-29T21:51:30.189Z,6.40
2022-12-29T21:56:32.924Z,6.40
2022-12-29T22:01:55.978Z,6.50
2022-12-29T22:07:16.994Z,6.50
2022-12-29T22:12:37.688Z,6.60
2022-12-29T22:17:44.995Z,6.70
2022-12-29T22:22:50.489Z,6.70
2022-12-29T22:27:57.224Z,6.70
2022-12-29T22:33:01.719Z,6.80
2022-12-29T22:38:03.802Z,6.80
2022-12-29T22:43:12.722Z,6.90
2022-12-29T22:48:15.275Z,7.00
2022-12-29T22:53:17.402Z,7.00
2022-12-29T22:58:19.463Z,7.10
2022-12-29T23:03:21.821Z,7.20
2022-12-29T23:08:24.438Z,7.20
2022-12-29T23:13:26.862Z,7.20
2022-12-29T23:18:29.239Z,7.30
2022-12-29T23:23:50.137Z,7.20
2022-12-29T23:28:59.729Z,7.20
2022-12-29T23:34:04.191Z,7.20
2022-12-29T23:39:08.806Z,7.10
2022-12-29T23:44:10.920Z,7.00
2022-12-29T23:49:13.063Z,7.00
2022-12-29T23:54:15.262Z,7.00
2022-12-29T23:59:17.317Z,7.00
